Time;durP1;ratioP1;P1;durP2;ratioP2;P2;SDS_P1;SDS_P2;PMS_P1;PMS_P2;Temp;Humidity;BMP_temperature;BMP_pressure;BME280_temperature;BME280_humidity;BME280_pressure;Samples;Min_cycle;Max_cycle;Signal;HPM_P1;HPM_P2
2021/12/07 00:00:43;;;;;;;;;;;23.90;47.10;;;;;;1531683;77;877;-57
2021/12/07 00:02:45;;;;;;;;;;;24.00;47.00;;;;;;1538775;77;710;-58
2021/12/07 00:04:47;;;;;;;;;;;23.90;47.00;;;;;;1533888;77;688;-58
2021/12/07 00:06:49;;;;;;;;;;;24.00;47.00;;;;;;1534061;77;1094;-59
2021/12/07 00:08:54;;;;;;;;;;;24.00;47.10;;;;;;1528877;77;921;-59
2021/12/07 00:10:54;;;;;;;;;;;24.00;47.10;;;;;;1532115;77;1585;-59
2021/12/07 00:12:57;;;;;;;;;;;24.00;47.10;;;;;;1539315;77;1939;-58
2021/12/07 00:15:02;;;;;;;;;;;24.00;47.20;;;;;;1530851;77;745;-58
2021/12/07 00:17:03;;;;;;;;;;;24.00;47.20;;;;;;1530441;77;1587;-59
2021/12/07 00:19:05;;;;;;;;;;;24.00;47.20;;;;;;1532568;75;721;-59
2021/12/07 00:21:07;;;;;;;;;;;24.00;47.10;;;;;;1533544;77;796;-59
2021/12/07 00:23:09;;;;;;;;;;;23.90;47.20;;;;;;1535111;77;698;-59
2021/12/07 00:25:11;;;;;;;;;;;24.00;47.30;;;;;;1533085;76;778;-60
2021/12/07 00:27:13;;;;;;;;;;;24.00;47.20;;;;;;1534902;77;1242;-59
2021/12/07 00:29:15;;;;;;;;;;;24.00;47.20;;;;;;1529351;77;736;-58
2021/12/07 00:31:27;;;;;;;;;;;24.00;47.20;;;;;;1538178;77;1944;-59
2021/12/07 00:35:34;;;;;;;;;;;24.00;47.20;;;;;;1530770;77;970;-58
2021/12/07 00:37:36;;;;;;;;;;;24.00;47.20;;;;;;1537014;77;1156;-59
2021/12/07 00:39:38;;;;;;;;;;;23.90;47.20;;;;;;1527562;77;734;-58
2021/12/07 00:41:40;;;;;;;;;;;23.90;47.10;;;;;;1525488;77;669;-59
2021/12/07 00:43:42;;;;;;;;;;;23.90;47.10;;;;;;1540968;77;688;-59
2021/12/07 00:45:45;;;;;;;;;;;23.90;47.10;;;;;;1533217;77;713;-58
2021/12/07 00:47:48;;;;;;;;;;;24.00;47.20;;;;;;1531013;77;1218;-57
2021/12/07 00:49:50;;;;;;;;;;;24.00;47.20;;;;;;1532189;77;776;-57
2021/12/07 00:51:52;;;;;;;;;;;24.00;47.20;;;;;;1535561;77;1919;-57
2021/12/07 00:53:53;;;;;;;;;;;23.90;47.30;;;;;;1527855;77;791;-57
2021/12/07 00:55:57;;;;;;;;;;;24.00;47.30;;;;;;1536186;77;1151;-59
2021/12/07 00:58:00;;;;;;;;;;;24.00;47.30;;;;;;1528105;77;748;-59
2021/12/07 01:00:04;;;;;;;;;;;24.00;47.20;;;;;;1528127;77;712;-59
2021/12/07 01:02:06;;;;;;;;;;;24.00;47.30;;;;;;1528486;77;716;-59
2021/12/07 01:04:08;;;;;;;;;;;24.00;47.20;;;;;;1532423;77;790;-59
2021/12/07 01:26:35;;;;;;;;;;;24.00;47.30;;;;;;1530045;77;1675;-59
2021/12/07 01:28:42;;;;;;;;;;;23.90;47.30;;;;;;1530871;77;702;-59
2021/12/07 01:33:19;;;;;;;;;;;23.90;47.30;;;;;;1539133;77;1901;-59
2021/12/07 01:37:38;;;;;;;;;;;23.90;47.30;;;;;;1527018;77;1198;-57
2021/12/07 01:50:46;;;;;;;;;;;23.90;47.40;;;;;;1532730;77;857;-59
2021/12/07 01:57:49;;;;;;;;;;;23.90;47.40;;;;;;1525156;77;1927;-58
2021/12/07 01:59:37;;;;;;;;;;;23.90;47.30;;;;;;1536060;77;1632;-57
2021/12/07 02:01:39;;;;;;;;;;;23.90;47.40;;;;;;1538616;77;757;-58
2021/12/07 02:03:41;;;;;;;;;;;23.90;47.40;;;;;;1538334;77;695;-58
2021/12/07 02:05:43;;;;;;;;;;;23.90;47.30;;;;;;1531333;77;725;-57
2021/12/07 02:07:46;;;;;;;;;;;24.00;47.30;;;;;;1531395;77;1113;-58
2021/12/07 02:09:52;;;;;;;;;;;23.90;47.30;;;;;;1539957;77;791;-59
2021/12/07 02:11:58;;;;;;;;;;;23.90;47.30;;;;;;1530582;77;1940;-57
2021/12/07 02:15:58;;;;;;;;;;;23.90;47.30;;;;;;1534353;77;1179;-59
2021/12/07 02:18:00;;;;;;;;;;;23.90;47.30;;;;;;1534657;77;686;-58
2021/12/07 02:20:02;;;;;;;;;;;23.90;47.20;;;;;;1529920;77;778;-59
2021/12/07 02:22:04;;;;;;;;;;;23.90;47.10;;;;;;1537195;77;807;-59
2021/12/07 02:24:06;;;;;;;;;;;23.90;47.20;;;;;;1527721;77;730;-58
2021/12/07 02:26:08;;;;;;;;;;;23.90;47.20;;;;;;1534148;77;1144;-58
2021/12/07 02:28:16;;;;;;;;;;;24.00;47.20;;;;;;1535801;77;688;-58
2021/12/07 02:30:20;;;;;;;;;;;23.90;47.10;;;;;;1531143;77;707;-56
2021/12/07 02:32:22;;;;;;;;;;;24.00;47.20;;;;;;1528932;77;1915;-56
2021/12/07 02:34:25;;;;;;;;;;;24.00;47.20;;;;;;1529697;77;818;-55
2021/12/07 02:36:27;;;;;;;;;;;24.00;47.10;;;;;;1535215;77;1115;-57
2021/12/07 02:38:29;;;;;;;;;;;24.00;47.20;;;;;;1538269;77;664;-56
2021/12/07 02:40:31;;;;;;;;;;;24.00;47.20;;;;;;1536910;77;652;-56
2021/12/07 02:42:32;;;;;;;;;;;23.90;47.20;;;;;;1534414;73;222593;-64
2021/12/07 02:44:34;;;;;;;;;;;24.00;47.20;;;;;;1524008;77;729;-67
2021/12/07 02:46:38;;;;;;;;;;;23.90;47.30;;;;;;1519684;76;749;-64
2021/12/07 02:48:40;;;;;;;;;;;23.90;47.30;;;;;;1517935;77;783;-64
2021/12/07 02:50:42;;;;;;;;;;;23.90;47.30;;;;;;1518086;77;790;-64
2021/12/07 02:52:44;;;;;;;;;;;23.90;47.30;;;;;;1521173;77;1961;-64
2021/12/07 02:54:49;;;;;;;;;;;23.90;47.30;;;;;;1515886;77;1056;-64
2021/12/07 02:56:51;;;;;;;;;;;24.00;47.30;;;;;;1526545;77;1787;-66
2021/12/07 02:58:58;;;;;;;;;;;23.90;47.20;;;;;;1521317;77;777;-63
2021/12/07 03:01:06;;;;;;;;;;;24.00;47.20;;;;;;1526733;75;1673;-64
2021/12/07 03:03:08;;;;;;;;;;;23.90;47.20;;;;;;1517027;77;1542;-65
2021/12/07 03:05:19;;;;;;;;;;;23.90;47.30;;;;;;1529464;77;1635;-67
2021/12/07 03:07:23;;;;;;;;;;;23.90;47.20;;;;;;1517050;77;1689;-64
2021/12/07 03:28:00;;;;;;;;;;;23.90;47.40;;;;;;1531870;76;818;-66
2021/12/07 03:30:04;;;;;;;;;;;23.90;47.40;;;;;;1533890;76;808;-66
2021/12/07 03:32:06;;;;;;;;;;;23.90;47.40;;;;;;1527479;76;1798;-66
2021/12/07 03:34:08;;;;;;;;;;;24.00;47.30;;;;;;1535847;76;1959;-66
2021/12/07 03:36:10;;;;;;;;;;;24.00;47.20;;;;;;1534498;76;683;-66
2021/12/07 03:38:12;;;;;;;;;;;24.00;47.20;;;;;;1535958;76;756;-65
2021/12/07 03:40:14;;;;;;;;;;;24.00;47.10;;;;;;1531852;76;761;-67
2021/12/07 03:42:16;;;;;;;;;;;24.10;47.10;;;;;;1514928;76;1143;-67
2021/12/07 03:44:18;;;;;;;;;;;24.10;47.00;;;;;;1535400;76;748;-67
2021/12/07 03:46:19;;;;;;;;;;;24.10;46.90;;;;;;1536360;76;747;-66
2021/12/07 03:48:21;;;;;;;;;;;24.10;46.90;;;;;;1534944;76;723;-66
2021/12/07 03:50:23;;;;;;;;;;;24.10;46.80;;;;;;1532557;76;719;-71
2021/12/07 03:52:25;;;;;;;;;;;24.20;46.80;;;;;;1537839;76;1944;-67
2021/12/07 03:54:27;;;;;;;;;;;24.20;46.80;;;;;;1520059;77;650;-68
2021/12/07 03:56:29;;;;;;;;;;;24.10;46.90;;;;;;1515700;77;822;-70
2021/12/07 03:58:32;;;;;;;;;;;24.00;46.90;;;;;;1524289;77;813;-69
2021/12/07 04:00:35;;;;;;;;;;;23.90;47.10;;;;;;1515747;77;811;-71
2021/12/07 04:02:40;;;;;;;;;;;23.80;47.20;;;;;;1517235;77;1124;-67
2021/12/07 04:04:40;;;;;;;;;;;23.80;47.50;;;;;;1525456;76;1544;-67
2021/12/07 04:06:42;;;;;;;;;;;23.70;47.60;;;;;;1529714;76;723;-66
2021/12/07 04:08:44;;;;;;;;;;;23.70;47.70;;;;;;1525516;76;795;-65
2021/12/07 04:10:46;;;;;;;;;;;23.70;47.80;;;;;;1524230;76;809;-68
2021/12/07 04:12:48;;;;;;;;;;;23.60;47.80;;;;;;1530641;77;1948;-66
2021/12/07 04:14:49;;;;;;;;;;;23.60;47.80;;;;;;1525519;76;689;-66
2021/12/07 04:16:51;;;;;;;;;;;23.60;48.00;;;;;;1534167;76;770;-67
2021/12/07 04:18:53;;;;;;;;;;;23.60;48.10;;;;;;1531751;76;697;-66
2021/12/07 04:20:55;;;;;;;;;;;23.50;48.20;;;;;;1535064;76;695;-67
2021/12/07 04:22:57;;;;;;;;;;;23.60;48.40;;;;;;1530440;76;1120;-68
2021/12/07 04:24:59;;;;;;;;;;;23.50;48.40;;;;;;1525780;76;697;-67
2021/12/07 04:27:01;;;;;;;;;;;23.50;48.40;;;;;;1530245;76;677;-67
2021/12/07 04:29:03;;;;;;;;;;;23.50;48.50;;;;;;1525876;76;832;-68
2021/12/07 04:31:05;;;;;;;;;;;23.50;48.60;;;;;;1534844;76;743;-67
2021/12/07 04:33:07;;;;;;;;;;;23.50;48.60;;;;;;1519708;76;1949;-67
2021/12/07 04:35:10;;;;;;;;;;;23.50;48.70;;;;;;1523751;76;749;-67
2021/12/07 04:37:12;;;;;;;;;;;23.50;48.80;;;;;;1529782;76;795;-67
2021/12/07 04:39:14;;;;;;;;;;;23.50;48.80;;;;;;1524663;76;765;-67
2021/12/07 04:41:16;;;;;;;;;;;23.40;48.70;;;;;;1525617;76;739;-68
2021/12/07 04:43:18;;;;;;;;;;;23.50;48.90;;;;;;1535576;76;1158;-69
2021/12/07 04:47:59;;;;;;;;;;;23.50;48.90;;;;;;1486169;77;1014;-67
2021/12/07 04:50:07;;;;;;;;;;;23.50;48.90;;;;;;1533878;76;1668;-67
2021/12/07 04:58:45;;;;;;;;;;;23.50;49.00;;;;;;1528318;76;1663;-69
2021/12/07 05:00:47;;;;;;;;;;;23.50;49.00;;;;;;1532381;76;743;-66
2021/12/07 05:02:55;;;;;;;;;;;23.50;49.00;;;;;;1527722;76;1221;-65
2021/12/07 05:04:52;;;;;;;;;;;23.50;49.10;;;;;;1534349;76;1623;-67
2021/12/07 05:07:02;;;;;;;;;;;23.50;49.10;;;;;;1533574;76;719;-67
2021/12/07 05:09:18;;;;;;;;;;;23.50;49.20;;;;;;1534910;76;1436;-67
2021/12/07 05:15:31;;;;;;;;;;;23.50;49.10;;;;;;1530505;76;858;-67
2021/12/07 05:17:55;;;;;;;;;;;23.50;49.00;;;;;;1526626;76;1654;-66
2021/12/07 05:24:17;;;;;;;;;;;23.50;49.00;;;;;;1536974;76;700;-68
2021/12/07 05:37:58;;;;;;;;;;;23.50;49.20;;;;;;1536655;76;1820;-66
2021/12/07 05:39:58;;;;;;;;;;;23.50;49.20;;;;;;1532323;76;1679;-66
2021/12/07 05:42:01;;;;;;;;;;;23.60;49.20;;;;;;1533379;76;1138;-66
2021/12/07 05:44:03;;;;;;;;;;;23.60;49.10;;;;;;1537184;76;792;-66
2021/12/07 05:46:05;;;;;;;;;;;23.50;49.20;;;;;;1537450;76;713;-65
2021/12/07 05:48:07;;;;;;;;;;;23.60;49.30;;;;;;1536907;76;780;-66
2021/12/07 05:50:09;;;;;;;;;;;23.50;49.20;;;;;;1534372;76;783;-66
2021/12/07 05:52:11;;;;;;;;;;;23.50;49.30;;;;;;1527692;76;1146;-65
2021/12/07 05:54:12;;;;;;;;;;;23.50;49.40;;;;;;1535447;76;1927;-65
2021/12/07 05:56:14;;;;;;;;;;;23.50;49.30;;;;;;1517773;77;819;-67
2021/12/07 05:58:16;;;;;;;;;;;23.50;49.40;;;;;;1512984;77;889;-67
2021/12/07 06:00:24;;;;;;;;;;;23.50;49.40;;;;;;1525881;77;845;-65
2021/12/07 06:02:23;;;;;;;;;;;23.50;49.40;;;;;;1523358;77;1800;-68
2021/12/07 06:04:25;;;;;;;;;;;23.50;49.40;;;;;;1520120;77;732;-64
2021/12/07 06:06:26;;;;;;;;;;;23.40;49.40;;;;;;1516909;77;810;-65
2021/12/07 06:08:28;;;;;;;;;;;23.50;49.70;;;;;;1517332;77;811;-66
2021/12/07 06:10:30;;;;;;;;;;;23.50;49.70;;;;;;1521140;77;772;-65
2021/12/07 06:12:32;;;;;;;;;;;23.50;49.70;;;;;;1536052;76;1217;-66
2021/12/07 06:14:41;;;;;;;;;;;23.40;49.60;;;;;;1537764;76;1955;-62
2021/12/07 06:16:38;;;;;;;;;;;23.70;49.40;;;;;;1534777;76;1622;-64
2021/12/07 06:18:39;;;;;;;;;;;24.00;48.60;;;;;;1531208;76;827;-61
2021/12/07 06:20:41;;;;;;;;;;;24.00;48.20;;;;;;1537575;76;739;-61
2021/12/07 06:22:43;;;;;;;;;;;24.00;47.90;;;;;;1533940;76;1154;-61
2021/12/07 06:24:45;;;;;;;;;;;24.10;47.80;;;;;;1531670;76;723;-64
2021/12/07 06:26:47;;;;;;;;;;;24.20;47.60;;;;;;1528137;76;681;-64
2021/12/07 06:28:50;;;;;;;;;;;24.10;47.50;;;;;;1529522;76;705;-62
2021/12/07 06:30:52;;;;;;;;;;;24.10;47.80;;;;;;1537313;76;652;-61
2021/12/07 06:32:53;;;;;;;;;;;24.10;47.60;;;;;;1532936;76;1146;-61
2021/12/07 06:34:55;;;;;;;;;;;24.20;47.30;;;;;;1535500;76;1936;-62
2021/12/07 06:36:57;;;;;;;;;;;24.20;47.30;;;;;;1531872;76;664;-61
2021/12/07 06:38:59;;;;;;;;;;;24.10;47.30;;;;;;1537026;76;805;-62
2021/12/07 06:41:02;;;;;;;;;;;24.10;47.30;;;;;;1534951;76;783;-64
2021/12/07 06:43:04;;;;;;;;;;;24.10;47.20;;;;;;1530714;76;1155;-62
2021/12/07 06:45:07;;;;;;;;;;;24.10;47.20;;;;;;1535460;76;777;-61
2021/12/07 06:47:09;;;;;;;;;;;24.10;47.10;;;;;;1531799;76;824;-61
2021/12/07 06:49:11;;;;;;;;;;;24.10;47.10;;;;;;1526843;76;801;-61
2021/12/07 06:51:12;;;;;;;;;;;24.00;46.80;;;;;;1535155;76;732;-61
2021/12/07 06:53:14;;;;;;;;;;;24.00;46.80;;;;;;1537330;76;1175;-61
2021/12/07 06:55:16;;;;;;;;;;;24.00;46.80;;;;;;1515197;76;1921;-62
2021/12/07 06:57:18;;;;;;;;;;;24.00;46.70;;;;;;1537199;76;748;-63
2021/12/07 06:59:20;;;;;;;;;;;24.00;46.60;;;;;;1526249;76;835;-61
2021/12/07 07:01:22;;;;;;;;;;;24.00;46.60;;;;;;1537435;76;685;-61
2021/12/07 07:03:24;;;;;;;;;;;23.90;46.50;;;;;;1536145;76;1153;-61
2021/12/07 07:05:26;;;;;;;;;;;24.00;46.50;;;;;;1537219;76;711;-61
2021/12/07 07:07:27;;;;;;;;;;;24.00;46.50;;;;;;1537934;76;726;-61
2021/12/07 07:09:29;;;;;;;;;;;24.00;46.50;;;;;;1535524;76;672;-62
2021/12/07 07:11:32;;;;;;;;;;;24.00;46.40;;;;;;1529113;77;738;-62
2021/12/07 07:13:33;;;;;;;;;;;23.90;46.40;;;;;;1537828;76;1952;-62
2021/12/07 07:15:35;;;;;;;;;;;23.90;46.30;;;;;;1533602;76;730;-64
2021/12/07 07:17:37;;;;;;;;;;;23.90;46.30;;;;;;1533256;76;823;-61
2021/12/07 07:19:39;;;;;;;;;;;23.90;46.30;;;;;;1527072;76;803;-61
2021/12/07 07:21:41;;;;;;;;;;;23.90;46.30;;;;;;1532198;77;773;-61
2021/12/07 07:23:43;;;;;;;;;;;24.00;46.30;;;;;;1517067;77;1037;-62
2021/12/07 07:25:45;;;;;;;;;;;23.90;46.20;;;;;;1515212;77;790;-61
2021/12/07 07:27:47;;;;;;;;;;;23.90;46.20;;;;;;1515516;77;768;-62
2021/12/07 07:29:49;;;;;;;;;;;24.00;46.10;;;;;;1519776;77;741;-61
2021/12/07 07:31:51;;;;;;;;;;;23.90;46.10;;;;;;1518086;77;1121;-62
2021/12/07 07:33:53;;;;;;;;;;;23.90;46.10;;;;;;1528225;77;1933;-64
2021/12/07 07:35:55;;;;;;;;;;;23.90;46.10;;;;;;1515683;76;728;-61
2021/12/07 07:37:57;;;;;;;;;;;23.90;46.00;;;;;;1524278;77;746;-62
2021/12/07 07:39:59;;;;;;;;;;;23.90;46.00;;;;;;1515649;77;752;-62
2021/12/07 07:42:00;;;;;;;;;;;23.90;46.00;;;;;;1519960;77;1155;-62
2021/12/07 07:44:03;;;;;;;;;;;23.90;46.00;;;;;;1516083;77;907;-62
2021/12/07 07:46:04;;;;;;;;;;;23.80;45.80;;;;;;1515755;77;798;-62
2021/12/07 07:48:06;;;;;;;;;;;23.90;45.40;;;;;;1520503;77;674;-63
2021/12/07 07:50:09;;;;;;;;;;;23.80;44.70;;;;;;1528942;77;709;-62
2021/12/07 07:52:11;;;;;;;;;;;23.70;44.10;;;;;;1521916;76;1147;-62
2021/12/07 07:54:14;;;;;;;;;;;23.70;43.40;;;;;;1528372;77;1934;-62
2021/12/07 07:56:17;;;;;;;;;;;23.70;43.30;;;;;;1514381;77;822;-61
2021/12/07 07:58:19;;;;;;;;;;;23.70;42.90;;;;;;1526783;77;783;-62
2021/12/07 08:00:21;;;;;;;;;;;23.60;42.80;;;;;;1515685;77;762;-62
2021/12/07 08:02:23;;;;;;;;;;;23.60;43.10;;;;;;1515611;77;1171;-63
2021/12/07 08:04:25;;;;;;;;;;;23.70;43.60;;;;;;1519508;77;692;-62
2021/12/07 08:06:27;;;;;;;;;;;23.60;43.60;;;;;;1527099;76;714;-62
2021/12/07 08:08:29;;;;;;;;;;;23.70;43.70;;;;;;1538092;76;754;-63
2021/12/07 08:10:31;;;;;;;;;;;23.70;43.90;;;;;;1537856;76;741;-64
2021/12/07 08:12:33;;;;;;;;;;;23.70;43.90;;;;;;1537891;76;1138;-63
2021/12/07 08:14:35;;;;;;;;;;;23.60;43.80;;;;;;1532632;76;1936;-65
2021/12/07 08:16:38;;;;;;;;;;;23.70;44.00;;;;;;1537375;76;831;-63
2021/12/07 08:18:40;;;;;;;;;;;23.70;44.10;;;;;;1531720;77;708;-62
2021/12/07 08:20:42;;;;;;;;;;;23.70;44.20;;;;;;1520709;77;799;-64
2021/12/07 08:22:43;;;;;;;;;;;23.70;44.20;;;;;;1519486;77;1143;-65
2021/12/07 08:24:45;;;;;;;;;;;23.70;44.30;;;;;;1517574;77;783;-63
2021/12/07 08:26:47;;;;;;;;;;;23.80;44.30;;;;;;1520636;77;808;-63
2021/12/07 08:28:50;;;;;;;;;;;23.80;44.40;;;;;;1520379;77;800;-63
2021/12/07 08:30:52;;;;;;;;;;;23.80;44.40;;;;;;1520231;77;769;-65
2021/12/07 08:32:54;;;;;;;;;;;23.80;44.30;;;;;;1520806;77;1096;-62
2021/12/07 08:34:56;;;;;;;;;;;23.90;44.40;;;;;;1526645;76;1911;-64
2021/12/07 08:36:58;;;;;;;;;;;23.90;44.40;;;;;;1520286;77;739;-63
2021/12/07 08:38:59;;;;;;;;;;;23.90;44.40;;;;;;1520334;77;721;-63
2021/12/07 08:41:01;;;;;;;;;;;23.90;44.40;;;;;;1523280;77;733;-63
2021/12/07 08:43:03;;;;;;;;;;;24.00;44.50;;;;;;1523036;74;2231;-66
2021/12/07 08:45:06;;;;;;;;;;;24.00;44.40;;;;;;1523215;77;704;-66
2021/12/07 08:47:08;;;;;;;;;;;24.00;44.40;;;;;;1515830;76;709;-66
2021/12/07 08:49:09;;;;;;;;;;;24.00;44.40;;;;;;1520173;76;706;-66
2021/12/07 08:51:12;;;;;;;;;;;24.00;44.30;;;;;;1517380;77;705;-67
2021/12/07 08:53:15;;;;;;;;;;;24.00;44.30;;;;;;1519199;77;1195;-66
2021/12/07 08:59:47;;;;;;;;;;;24.00;44.40;;;;;;1515126;77;1669;-67
2021/12/07 09:01:49;;;;;;;;;;;23.90;44.50;;;;;;1514931;77;706;-66
2021/12/07 09:03:52;;;;;;;;;;;23.90;44.60;;;;;;1520058;76;1122;-66
2021/12/07 09:05:54;;;;;;;;;;;24.00;44.60;;;;;;1519144;76;813;-66
2021/12/07 09:07:55;;;;;;;;;;;24.00;44.60;;;;;;1510804;77;699;-67
2021/12/07 09:09:57;;;;;;;;;;;23.90;44.60;;;;;;1510876;77;772;-67
2021/12/07 09:11:59;;;;;;;;;;;23.90;44.70;;;;;;1511522;76;742;-69
2021/12/07 09:14:01;;;;;;;;;;;23.90;45.00;;;;;;1514675;76;1120;-67
2021/12/07 09:16:03;;;;;;;;;;;23.90;45.00;;;;;;1517582;77;1925;-67
2021/12/07 09:18:05;;;;;;;;;;;23.90;45.00;;;;;;1519277;76;784;-67
2021/12/07 09:20:10;;;;;;;;;;;23.90;45.00;;;;;;1522414;77;719;-66
2021/12/07 09:22:11;;;;;;;;;;;23.90;45.10;;;;;;1514881;76;1807;-66
2021/12/07 09:24:13;;;;;;;;;;;23.90;45.00;;;;;;1523974;77;806;-68
2021/12/07 09:26:15;;;;;;;;;;;23.90;45.00;;;;;;1514209;76;742;-67
2021/12/07 09:28:17;;;;;;;;;;;23.90;45.00;;;;;;1514966;77;801;-66
2021/12/07 09:30:19;;;;;;;;;;;23.90;45.00;;;;;;1511559;77;816;-66
2021/12/07 09:32:21;;;;;;;;;;;23.90;45.00;;;;;;1518104;76;1108;-66
2021/12/07 09:34:22;;;;;;;;;;;23.90;45.00;;;;;;1511705;76;1931;-67
2021/12/07 09:36:25;;;;;;;;;;;23.90;45.00;;;;;;1512517;76;619;-67
2021/12/07 09:38:27;;;;;;;;;;;23.90;45.00;;;;;;1510825;77;627;-67
2021/12/07 09:40:29;;;;;;;;;;;23.90;45.00;;;;;;1515173;77;693;-67
2021/12/07 09:42:31;;;;;;;;;;;23.90;45.00;;;;;;1515691;76;1146;-67
2021/12/07 09:44:32;;;;;;;;;;;24.00;44.90;;;;;;1510929;76;758;-67
2021/12/07 09:46:34;;;;;;;;;;;23.90;44.90;;;;;;1510911;76;735;-66
2021/12/07 09:48:36;;;;;;;;;;;23.90;45.00;;;;;;1510811;76;714;-67
2021/12/07 09:50:39;;;;;;;;;;;23.90;44.90;;;;;;1513456;76;731;-66
2021/12/07 09:52:42;;;;;;;;;;;23.90;44.90;;;;;;1512676;76;1174;-67
2021/12/07 09:54:44;;;;;;;;;;;23.90;44.90;;;;;;1511734;77;1933;-66
2021/12/07 09:56:46;;;;;;;;;;;23.90;44.90;;;;;;1511037;76;710;-66
2021/12/07 09:58:49;;;;;;;;;;;23.90;44.90;;;;;;1511011;77;698;-66
2021/12/07 10:00:50;;;;;;;;;;;24.00;44.80;;;;;;1511181;77;779;-66
2021/12/07 10:02:52;;;;;;;;;;;24.00;44.80;;;;;;1511057;77;1153;-66
2021/12/07 10:04:54;;;;;;;;;;;24.00;44.80;;;;;;1514931;77;754;-66
2021/12/07 10:06:57;;;;;;;;;;;24.00;44.80;;;;;;1511111;77;787;-67
2021/12/07 10:08:58;;;;;;;;;;;24.00;44.80;;;;;;1511077;76;800;-66
2021/12/07 10:11:01;;;;;;;;;;;24.00;44.70;;;;;;1511058;76;726;-67
2021/12/07 10:13:03;;;;;;;;;;;24.00;44.70;;;;;;1513765;76;1187;-66
2021/12/07 10:15:06;;;;;;;;;;;24.00;44.60;;;;;;1515103;76;1933;-66
2021/12/07 10:17:08;;;;;;;;;;;24.10;44.70;;;;;;1511883;76;773;-67
2021/12/07 10:19:11;;;;;;;;;;;24.20;44.60;;;;;;1521582;76;796;-67
2021/12/07 10:21:14;;;;;;;;;;;24.20;44.50;;;;;;1526063;76;669;-68
2021/12/07 10:23:22;;;;;;;;;;;24.20;44.40;;;;;;1515214;77;1155;-66
2021/12/07 10:25:25;;;;;;;;;;;24.20;44.30;;;;;;1522902;76;1034;-68
2021/12/07 10:27:37;;;;;;;;;;;24.30;44.30;;;;;;1523805;76;745;-67
2021/12/07 10:29:40;;;;;;;;;;;24.30;44.30;;;;;;1523118;76;805;-67
2021/12/07 10:31:45;;;;;;;;;;;24.30;44.20;;;;;;1519164;76;702;-68
2021/12/07 10:33:53;;;;;;;;;;;24.40;44.10;;;;;;1526962;76;1139;-66
2021/12/07 10:35:56;;;;;;;;;;;24.30;44.10;;;;;;1522527;76;1901;-68
2021/12/07 10:38:14;;;;;;;;;;;24.30;44.00;;;;;;1518369;77;1088;-68
2021/12/07 10:40:16;;;;;;;;;;;24.30;43.90;;;;;;1515365;77;730;-67
2021/12/07 10:42:22;;;;;;;;;;;24.30;43.80;;;;;;1525324;77;1174;-68
2021/12/07 10:44:30;;;;;;;;;;;24.50;43.80;;;;;;1534122;76;1559;-68
2021/12/07 10:46:32;;;;;;;;;;;24.40;43.60;;;;;;1532852;77;1654;-67
2021/12/07 10:48:34;;;;;;;;;;;24.40;43.60;;;;;;1536307;76;749;-68
2021/12/07 10:50:38;;;;;;;;;;;24.50;43.80;;;;;;1525103;76;722;-68
2021/12/07 10:52:42;;;;;;;;;;;24.40;43.70;;;;;;1521894;76;1155;-67
2021/12/07 10:54:45;;;;;;;;;;;24.40;43.70;;;;;;1520175;76;1410;-68
2021/12/07 10:56:46;;;;;;;;;;;24.30;43.80;;;;;;1536106;76;1932;-67
2021/12/07 10:58:50;;;;;;;;;;;24.30;43.80;;;;;;1529079;76;696;-68
2021/12/07 11:00:52;;;;;;;;;;;24.30;43.80;;;;;;1514169;76;1106;-67
2021/12/07 11:03:10;;;;;;;;;;;24.30;43.90;;;;;;1525178;76;1134;-67
2021/12/07 11:05:13;;;;;;;;;;;24.20;43.80;;;;;;1520194;76;710;-66
2021/12/07 11:07:20;;;;;;;;;;;24.20;43.90;;;;;;1511759;77;751;-66
2021/12/07 11:09:22;;;;;;;;;;;24.10;44.00;;;;;;1520275;77;706;-68
2021/12/07 11:11:27;;;;;;;;;;;24.20;44.00;;;;;;1516770;77;780;-67
2021/12/07 11:13:37;;;;;;;;;;;24.10;44.00;;;;;;1521946;76;1321;-67
2021/12/07 11:15:47;;;;;;;;;;;24.20;44.00;;;;;;1512765;77;1909;-67
2021/12/07 11:17:43;;;;;;;;;;;24.10;44.00;;;;;;1510405;76;1166;-67
2021/12/07 11:19:45;;;;;;;;;;;24.10;44.10;;;;;;1517394;76;732;-67
2021/12/07 11:21:47;;;;;;;;;;;24.10;44.10;;;;;;1513379;76;682;-70
2021/12/07 11:23:50;;;;;;;;;;;24.10;44.10;;;;;;1512717;76;1064;-67
2021/12/07 11:30:17;;;;;;;;;;;24.00;43.90;;;;;;1529476;76;1627;-66
2021/12/07 11:32:19;;;;;;;;;;;24.10;44.10;;;;;;1530183;76;1152;-66
2021/12/07 11:34:22;;;;;;;;;;;24.10;44.20;;;;;;1530856;76;786;-66
2021/12/07 11:36:31;;;;;;;;;;;24.00;44.00;;;;;;1536216;76;1905;-66
2021/12/07 11:38:33;;;;;;;;;;;24.00;44.00;;;;;;1527393;76;682;-66
2021/12/07 11:40:36;;;;;;;;;;;24.00;44.00;;;;;;1535928;76;732;-66
2021/12/07 11:42:41;;;;;;;;;;;24.00;44.00;;;;;;1525127;76;1131;-67
2021/12/07 11:44:47;;;;;;;;;;;24.00;44.00;;;;;;1533155;77;769;-66
2021/12/07 11:46:49;;;;;;;;;;;24.00;44.10;;;;;;1526711;77;901;-67
2021/12/07 11:48:53;;;;;;;;;;;24.00;44.00;;;;;;1531297;76;773;-66
2021/12/07 11:50:54;;;;;;;;;;;24.00;44.00;;;;;;1528733;77;1885;-66
2021/12/07 11:52:58;;;;;;;;;;;24.00;44.10;;;;;;1529051;76;1154;-66
2021/12/07 11:55:00;;;;;;;;;;;24.00;44.10;;;;;;1528892;76;759;-66
2021/12/07 11:57:02;;;;;;;;;;;24.00;44.10;;;;;;1535931;77;1945;-66
2021/12/07 11:59:04;;;;;;;;;;;24.00;44.10;;;;;;1532751;77;786;-65
2021/12/07 12:01:08;;;;;;;;;;;24.00;44.10;;;;;;1536444;77;732;-66
2021/12/07 12:03:11;;;;;;;;;;;24.00;44.10;;;;;;1534739;76;1590;-67
2021/12/07 12:05:13;;;;;;;;;;;24.00;44.10;;;;;;1536250;77;1133;-66
2021/12/07 12:07:15;;;;;;;;;;;24.00;44.10;;;;;;1536354;76;740;-66
2021/12/07 12:09:17;;;;;;;;;;;24.00;44.10;;;;;;1524030;76;783;-67
2021/12/07 12:11:23;;;;;;;;;;;24.00;44.10;;;;;;1528145;76;715;-66
2021/12/07 12:13:41;;;;;;;;;;;24.10;44.20;;;;;;1515311;77;1228;-65
2021/12/07 12:15:53;;;;;;;;;;;24.00;44.10;;;;;;1510978;76;1922;-66
2021/12/07 12:18:00;;;;;;;;;;;24.00;44.10;;;;;;1515909;77;698;-65
2021/12/07 12:20:21;;;;;;;;;;;24.00;44.10;;;;;;1515750;76;1942;-66
2021/12/07 12:22:28;;;;;;;;;;;24.00;44.10;;;;;;1511573;76;1128;-66
2021/12/07 12:24:34;;;;;;;;;;;24.00;44.10;;;;;;1494830;77;1008;-65
2021/12/07 12:26:36;;;;;;;;;;;24.10;44.20;;;;;;1515770;76;968;-65
2021/12/07 12:28:42;;;;;;;;;;;24.10;44.20;;;;;;1515513;76;789;-66
2021/12/07 12:30:44;;;;;;;;;;;24.10;44.20;;;;;;1515867;76;694;-66
2021/12/07 12:32:47;;;;;;;;;;;24.10;44.20;;;;;;1511555;77;1143;-65
2021/12/07 12:34:49;;;;;;;;;;;24.20;44.10;;;;;;1522680;77;742;-67
2021/12/07 12:36:58;;;;;;;;;;;24.10;44.20;;;;;;1516641;77;1937;-67
2021/12/07 12:39:01;;;;;;;;;;;24.10;44.10;;;;;;1513822;77;999;-65
2021/12/07 12:41:06;;;;;;;;;;;24.10;44.20;;;;;;1517511;76;704;-65
2021/12/07 12:43:08;;;;;;;;;;;24.10;44.20;;;;;;1516498;76;1146;-65
2021/12/07 12:45:22;;;;;;;;;;;24.00;44.00;;;;;;1514463;77;813;-65
2021/12/07 12:47:27;;;;;;;;;;;24.10;44.20;;;;;;1515519;76;718;-65
2021/12/07 12:49:37;;;;;;;;;;;24.10;44.20;;;;;;1515340;77;735;-66
2021/12/07 12:51:43;;;;;;;;;;;24.20;44.20;;;;;;1513494;76;639;-66
2021/12/07 12:53:45;;;;;;;;;;;24.20;44.00;;;;;;1524246;76;1488;-66
2021/12/07 12:55:49;;;;;;;;;;;24.20;43.90;;;;;;1529293;76;1925;-66
2021/12/07 12:57:51;;;;;;;;;;;24.30;44.00;;;;;;1527940;76;725;-66
2021/12/07 12:59:53;;;;;;;;;;;24.30;43.90;;;;;;1531824;76;962;-67
2021/12/07 13:01:56;;;;;;;;;;;24.30;43.70;;;;;;1526714;76;790;-67
2021/12/07 13:04:00;;;;;;;;;;;24.30;43.70;;;;;;1533563;76;1114;-67
2021/12/07 13:06:01;;;;;;;;;;;24.30;43.70;;;;;;1531858;76;858;-67
2021/12/07 13:08:16;;;;;;;;;;;24.30;43.80;;;;;;1520964;77;663;-69
2021/12/07 13:10:18;;;;;;;;;;;24.30;43.80;;;;;;1524229;77;646;-69
2021/12/07 13:12:21;;;;;;;;;;;24.20;43.70;;;;;;1529243;77;1195;-69
2021/12/07 13:14:24;;;;;;;;;;;24.20;43.80;;;;;;1539206;76;784;-69
2021/12/07 13:16:26;;;;;;;;;;;24.30;43.90;;;;;;1536440;77;1968;-69
2021/12/07 13:18:32;;;;;;;;;;;24.30;43.80;;;;;;1536428;77;661;-69
2021/12/07 13:20:32;;;;;;;;;;;24.30;43.70;;;;;;1527056;76;1734;-68
2021/12/07 13:22:43;;;;;;;;;;;24.30;43.80;;;;;;1532691;76;1127;-69
2021/12/07 13:24:46;;;;;;;;;;;24.20;43.60;;;;;;1530390;77;1081;-68
2021/12/07 13:26:52;;;;;;;;;;;24.20;43.70;;;;;;1522985;77;717;-70
2021/12/07 13:29:04;;;;;;;;;;;24.20;43.80;;;;;;1536290;76;784;-70
2021/12/07 13:31:13;;;;;;;;;;;24.20;43.80;;;;;;1535557;77;724;-68
2021/12/07 13:33:16;;;;;;;;;;;24.10;43.90;;;;;;1535260;76;1120;-72
2021/12/07 13:35:18;;;;;;;;;;;24.10;43.90;;;;;;1536331;76;755;-70
2021/12/07 13:37:20;;;;;;;;;;;24.20;43.90;;;;;;1537877;77;1930;-69
2021/12/07 13:39:23;;;;;;;;;;;24.20;43.90;;;;;;1536223;76;749;-70
2021/12/07 13:41:25;;;;;;;;;;;24.20;43.90;;;;;;1536388;77;861;-70
2021/12/07 13:43:29;;;;;;;;;;;24.00;43.90;;;;;;1535327;76;1109;-70
2021/12/07 13:45:31;;;;;;;;;;;24.10;44.10;;;;;;1532288;77;1032;-66
2021/12/07 13:47:34;;;;;;;;;;;24.10;44.00;;;;;;1536309;76;794;-66
2021/12/07 13:49:36;;;;;;;;;;;24.10;44.10;;;;;;1536352;76;806;-66
2021/12/07 13:51:38;;;;;;;;;;;24.00;44.00;;;;;;1536039;76;773;-64
2021/12/07 13:53:40;;;;;;;;;;;24.10;44.20;;;;;;1536275;77;1150;-65
2021/12/07 13:55:42;;;;;;;;;;;24.00;44.00;;;;;;1524446;77;777;-66